Main page
METAR-TAF:

METAR-TAF

Airports :

Rouyn-Noranda Airport

Rouyn-Noranda, Quebec, Canada

latitude: 48-12N, longitude: 078-50W, elevation: 301 m

Current weather observation

The report was made 33 minutes ago, at 11:00 UTC
Wind 3 kt from the South/Southwest, varying between South and West
Temperature 16°C
Humidity 88%
Pressure 1018 hPa
Visibility: 24.1 km
Few clouds at a height of 8000 ft
Broken clouds at a height of 24000 ft

METAR: CYUY 221100Z 20003KT 180V260 15SM FEW080 BKN240 16/14 A3006 RMK AC1CI4 SLP182 DENSITY ALT 1200FT

Time: 07:33 (11:33 UTC)

Forecast

The report was made 5 hours and 53 minutes ago, at 05:40 UTC
Forecast valid from 22 at 06 UTC to 22 at 18 UTC
Wind 3 kt from variable directions
Visibility: 10 km
Broken clouds at a height of 6000 ft
Overcast at a height of 20000 ft
Becoming
from 22 at 12 UTC to 22 at 14 UTC
Wind 10 kt from the Southwest

TAF: CYUY 220540Z 2206/2218 VRB03KT P6SM BKN060 OVC200 BECMG 2212/2214 23010KT RMK NXT FCST BY 221200Z

Weather observations and forecasts of more than 4000 airports (METAR and TAF reports).

The available stations are represented by yellow and red dots on the map.

Hover mouse over dot to see the name of the station.

Then click to see weather observations and forecasts.

To change the map : click on the green buttons with a black cross to zoom in, on the green button with a dash to zoom out, or on the green arrows for adjacent maps.


METAR-TAF: